sensor_id;sensor_type;location;lat;lon;timestamp;temperature;humidity
16404;DHT22;8311;50.158;8.642;2023-11-22T00:01:15;20.20;56.30
16404;DHT22;8311;50.158;8.642;2023-11-22T00:04:09;20.20;56.30
16404;DHT22;8311;50.158;8.642;2023-11-22T00:07:04;20.20;56.30
16404;DHT22;8311;50.158;8.642;2023-11-22T00:09:57;20.20;56.30
16404;DHT22;8311;50.158;8.642;2023-11-22T00:12:50;20.30;56.40
16404;DHT22;8311;50.158;8.642;2023-11-22T00:15:43;20.20;56.30
16404;DHT22;8311;50.158;8.642;2023-11-22T00:18:36;20.30;56.30
16404;DHT22;8311;50.158;8.642;2023-11-22T00:21:30;20.20;56.30
16404;DHT22;8311;50.158;8.642;2023-11-22T00:24:25;20.20;56.30
16404;DHT22;8311;50.158;8.642;2023-11-22T00:27:19;20.20;56.30
16404;DHT22;8311;50.158;8.642;2023-11-22T00:30:13;20.20;56.30
16404;DHT22;8311;50.158;8.642;2023-11-22T00:33:06;20.20;56.30
16404;DHT22;8311;50.158;8.642;2023-11-22T00:35:59;20.20;56.20
16404;DHT22;8311;50.158;8.642;2023-11-22T00:38:57;20.20;56.20
16404;DHT22;8311;50.158;8.642;2023-11-22T00:41:51;20.20;56.30
16404;DHT22;8311;50.158;8.642;2023-11-22T00:44:45;20.20;56.20
16404;DHT22;8311;50.158;8.642;2023-11-22T00:47:38;20.20;56.20
16404;DHT22;8311;50.158;8.642;2023-11-22T00:50:32;20.20;56.20
16404;DHT22;8311;50.158;8.642;2023-11-22T00:53:26;20.20;56.20
16404;DHT22;8311;50.158;8.642;2023-11-22T00:56:19;20.20;56.20
16404;DHT22;8311;50.158;8.642;2023-11-22T00:59:14;20.20;56.20
16404;DHT22;8311;50.158;8.642;2023-11-22T01:02:08;20.20;56.20
16404;DHT22;8311;50.158;8.642;2023-11-22T01:05:01;20.20;56.20
16404;DHT22;8311;50.158;8.642;2023-11-22T01:07:55;20.20;56.20
16404;DHT22;8311;50.158;8.642;2023-11-22T01:10:49;20.20;56.20
16404;DHT22;8311;50.158;8.642;2023-11-22T01:13:42;20.20;56.20
16404;DHT22;8311;50.158;8.642;2023-11-22T01:16:36;20.20;56.20
16404;DHT22;8311;50.158;8.642;2023-11-22T01:19:29;20.20;56.20
16404;DHT22;8311;50.158;8.642;2023-11-22T01:22:22;20.20;56.20
16404;DHT22;8311;50.158;8.642;2023-11-22T01:25:15;20.20;56.10
16404;DHT22;8311;50.158;8.642;2023-11-22T01:28:08;20.20;56.10
16404;DHT22;8311;50.158;8.642;2023-11-22T01:31:03;20.20;56.10
16404;DHT22;8311;50.158;8.642;2023-11-22T01:33:57;20.20;56.70
16404;DHT22;8311;50.158;8.642;2023-11-22T01:36:51;20.20;56.10
16404;DHT22;8311;50.158;8.642;2023-11-22T01:39:45;20.20;56.10
16404;DHT22;8311;50.158;8.642;2023-11-22T01:42:38;20.20;56.10
16404;DHT22;8311;50.158;8.642;2023-11-22T01:45:32;20.20;56.10
16404;DHT22;8311;50.158;8.642;2023-11-22T01:48:26;20.20;56.10
16404;DHT22;8311;50.158;8.642;2023-11-22T01:51:21;20.20;56.10
16404;DHT22;8311;50.158;8.642;2023-11-22T01:54:16;20.20;56.10
16404;DHT22;8311;50.158;8.642;2023-11-22T01:57:10;20.20;56.10
16404;DHT22;8311;50.158;8.642;2023-11-22T02:00:06;20.20;56.10
16404;DHT22;8311;50.158;8.642;2023-11-22T02:03:05;20.10;56.00
16404;DHT22;8311;50.158;8.642;2023-11-22T02:05:59;20.20;56.10
16404;DHT22;8311;50.158;8.642;2023-11-22T02:08:53;20.20;56.10
16404;DHT22;8311;50.158;8.642;2023-11-22T02:11:47;20.20;56.00
16404;DHT22;8311;50.158;8.642;2023-11-22T02:14:41;20.10;56.00
16404;DHT22;8311;50.158;8.642;2023-11-22T02:17:34;20.10;56.00
16404;DHT22;8311;50.158;8.642;2023-11-22T02:20:28;20.20;56.00
16404;DHT22;8311;50.158;8.642;2023-11-22T02:23:23;20.20;56.00
16404;DHT22;8311;50.158;8.642;2023-11-22T02:26:16;20.20;56.00
16404;DHT22;8311;50.158;8.642;2023-11-22T02:29:11;20.10;56.00
16404;DHT22;8311;50.158;8.642;2023-11-22T02:32:06;20.10;55.90
16404;DHT22;8311;50.158;8.642;2023-11-22T02:35:00;20.10;55.90
16404;DHT22;8311;50.158;8.642;2023-11-22T02:37:56;20.20;56.00
16404;DHT22;8311;50.158;8.642;2023-11-22T02:40:51;20.10;55.90
16404;DHT22;8311;50.158;8.642;2023-11-22T02:43:45;20.20;56.00
16404;DHT22;8311;50.158;8.642;2023-11-22T02:46:38;20.10;55.90
16404;DHT22;8311;50.158;8.642;2023-11-22T02:49:31;20.10;55.90
16404;DHT22;8311;50.158;8.642;2023-11-22T02:52:24;20.10;55.90
16404;DHT22;8311;50.158;8.642;2023-11-22T02:55:18;20.10;55.90
16404;DHT22;8311;50.158;8.642;2023-11-22T02:58:13;20.10;55.90
16404;DHT22;8311;50.158;8.642;2023-11-22T03:01:08;20.10;55.90
16404;DHT22;8311;50.158;8.642;2023-11-22T03:04:01;20.10;55.90
16404;DHT22;8311;50.158;8.642;2023-11-22T03:06:54;20.10;55.90
16404;DHT22;8311;50.158;8.642;2023-11-22T03:09:48;20.10;55.90
16404;DHT22;8311;50.158;8.642;2023-11-22T03:12:41;20.10;55.90
16404;DHT22;8311;50.158;8.642;2023-11-22T03:15:36;20.10;55.90
16404;DHT22;8311;50.158;8.642;2023-11-22T03:18:30;20.10;55.90
16404;DHT22;8311;50.158;8.642;2023-11-22T03:21:23;20.10;55.90
16404;DHT22;8311;50.158;8.642;2023-11-22T03:24:19;20.10;55.90
16404;DHT22;8311;50.158;8.642;2023-11-22T03:27:12;20.10;55.80
16404;DHT22;8311;50.158;8.642;2023-11-22T03:30:06;20.10;55.80
16404;DHT22;8311;50.158;8.642;2023-11-22T03:33:05;20.10;55.80
16404;DHT22;8311;50.158;8.642;2023-11-22T03:35:58;20.10;55.80
16404;DHT22;8311;50.158;8.642;2023-11-22T03:38:51;20.10;55.80
16404;DHT22;8311;50.158;8.642;2023-11-22T03:41:44;20.10;55.80
16404;DHT22;8311;50.158;8.642;2023-11-22T03:44:37;20.10;55.80
16404;DHT22;8311;50.158;8.642;2023-11-22T03:47:30;20.10;55.80
16404;DHT22;8311;50.158;8.642;2023-11-22T03:50:26;20.10;55.80
16404;DHT22;8311;50.158;8.642;2023-11-22T03:53:19;20.10;55.80
16404;DHT22;8311;50.158;8.642;2023-11-22T03:56:13;20.10;55.80
16404;DHT22;8311;50.158;8.642;2023-11-22T03:59:06;20.10;55.80
16404;DHT22;8311;50.158;8.642;2023-11-22T04:01:59;20.10;55.80
16404;DHT22;8311;50.158;8.642;2023-11-22T04:04:52;20.10;55.80
16404;DHT22;8311;50.158;8.642;2023-11-22T04:07:46;20.10;55.80
16404;DHT22;8311;50.158;8.642;2023-11-22T04:10:39;20.10;55.80
16404;DHT22;8311;50.158;8.642;2023-11-22T04:13:32;20.10;55.80
16404;DHT22;8311;50.158;8.642;2023-11-22T04:16:26;20.10;55.80
16404;DHT22;8311;50.158;8.642;2023-11-22T04:19:20;20.10;55.80
16404;DHT22;8311;50.158;8.642;2023-11-22T04:22:14;20.10;55.80
16404;DHT22;8311;50.158;8.642;2023-11-22T04:25:09;20.10;55.80
16404;DHT22;8311;50.158;8.642;2023-11-22T04:28:05;20.10;55.70
16404;DHT22;8311;50.158;8.642;2023-11-22T04:31:01;20.10;55.70
16404;DHT22;8311;50.158;8.642;2023-11-22T04:33:54;20.10;55.80
16404;DHT22;8311;50.158;8.642;2023-11-22T04:36:49;20.10;55.80
16404;DHT22;8311;50.158;8.642;2023-11-22T04:39:43;20.10;55.70
16404;DHT22;8311;50.158;8.642;2023-11-22T04:42:37;20.10;55.70
16404;DHT22;8311;50.158;8.642;2023-11-22T04:45:31;20.10;55.70
16404;DHT22;8311;50.158;8.642;2023-11-22T04:48:24;20.10;55.70
16404;DHT22;8311;50.158;8.642;2023-11-22T04:51:17;20.10;55.70
16404;DHT22;8311;50.158;8.642;2023-11-22T04:54:10;20.10;55.70
16404;DHT22;8311;50.158;8.642;2023-11-22T04:57:04;20.10;55.70
16404;DHT22;8311;50.158;8.642;2023-11-22T05:00:00;20.10;55.70
16404;DHT22;8311;50.158;8.642;2023-11-22T05:02:55;20.00;55.60
16404;DHT22;8311;50.158;8.642;2023-11-22T05:05:48;20.10;55.70
16404;DHT22;8311;50.158;8.642;2023-11-22T05:08:41;20.00;55.60
16404;DHT22;8311;50.158;8.642;2023-11-22T05:11:34;20.10;55.70
16404;DHT22;8311;50.158;8.642;2023-11-22T05:14:27;20.00;55.60
16404;DHT22;8311;50.158;8.642;2023-11-22T05:17:22;20.00;55.60
16404;DHT22;8311;50.158;8.642;2023-11-22T05:20:15;20.00;55.60
16404;DHT22;8311;50.158;8.642;2023-11-22T05:23:09;20.00;55.60
16404;DHT22;8311;50.158;8.642;2023-11-22T05:26:02;20.00;55.60
16404;DHT22;8311;50.158;8.642;2023-11-22T05:28:56;20.10;55.60
16404;DHT22;8311;50.158;8.642;2023-11-22T05:31:49;20.00;55.60
16404;DHT22;8311;50.158;8.642;2023-11-22T05:34:46;20.00;55.60
16404;DHT22;8311;50.158;8.642;2023-11-22T05:37:39;20.10;55.60
16404;DHT22;8311;50.158;8.642;2023-11-22T05:40:33;20.00;55.60
16404;DHT22;8311;50.158;8.642;2023-11-22T05:43:26;20.00;55.60
16404;DHT22;8311;50.158;8.642;2023-11-22T05:46:20;20.00;55.60
16404;DHT22;8311;50.158;8.642;2023-11-22T05:49:14;20.00;55.60
16404;DHT22;8311;50.158;8.642;2023-11-22T05:52:08;20.00;55.60
16404;DHT22;8311;50.158;8.642;2023-11-22T05:55:04;20.00;55.60
16404;DHT22;8311;50.158;8.642;2023-11-22T05:57:57;20.00;55.60
16404;DHT22;8311;50.158;8.642;2023-11-22T06:00:50;20.00;55.60
16404;DHT22;8311;50.158;8.642;2023-11-22T06:03:44;20.00;55.60
16404;DHT22;8311;50.158;8.642;2023-11-22T06:06:37;20.00;55.50
16404;DHT22;8311;50.158;8.642;2023-11-22T06:09:33;20.00;55.50
16404;DHT22;8311;50.158;8.642;2023-11-22T06:12:26;20.00;55.50
16404;DHT22;8311;50.158;8.642;2023-11-22T06:15:19;20.00;55.50
16404;DHT22;8311;50.158;8.642;2023-11-22T06:18:14;20.00;55.50
16404;DHT22;8311;50.158;8.642;2023-11-22T06:21:07;20.00;55.50
16404;DHT22;8311;50.158;8.642;2023-11-22T06:24:01;20.00;55.50
16404;DHT22;8311;50.158;8.642;2023-11-22T06:26:57;20.00;55.50
16404;DHT22;8311;50.158;8.642;2023-11-22T06:29:50;20.00;55.50
16404;DHT22;8311;50.158;8.642;2023-11-22T06:32:43;20.00;55.50
16404;DHT22;8311;50.158;8.642;2023-11-22T06:35:36;20.00;55.50
16404;DHT22;8311;50.158;8.642;2023-11-22T06:38:29;20.00;55.50
16404;DHT22;8311;50.158;8.642;2023-11-22T06:41:22;20.00;55.50
16404;DHT22;8311;50.158;8.642;2023-11-22T06:44:17;20.00;55.50
16404;DHT22;8311;50.158;8.642;2023-11-22T06:47:10;20.00;55.50
16404;DHT22;8311;50.158;8.642;2023-11-22T06:50:04;20.00;55.50
16404;DHT22;8311;50.158;8.642;2023-11-22T06:53:00;20.00;55.50
16404;DHT22;8311;50.158;8.642;2023-11-22T06:55:55;19.90;55.40
16404;DHT22;8311;50.158;8.642;2023-11-22T06:58:48;20.00;55.50
16404;DHT22;8311;50.158;8.642;2023-11-22T07:01:44;19.90;55.40
16404;DHT22;8311;50.158;8.642;2023-11-22T07:04:37;19.90;55.40
16404;DHT22;8311;50.158;8.642;2023-11-22T07:07:31;19.90;55.40
16404;DHT22;8311;50.158;8.642;2023-11-22T07:10:24;19.90;55.40
16404;DHT22;8311;50.158;8.642;2023-11-22T07:13:18;20.00;55.50
16404;DHT22;8311;50.158;8.642;2023-11-22T07:16:12;19.90;55.40
16404;DHT22;8311;50.158;8.642;2023-11-22T07:19:08;19.90;55.40
16404;DHT22;8311;50.158;8.642;2023-11-22T07:22:01;19.90;55.40
16404;DHT22;8311;50.158;8.642;2023-11-22T07:24:56;19.90;55.30
16404;DHT22;8311;50.158;8.642;2023-11-22T07:27:54;19.90;55.30
16404;DHT22;8311;50.158;8.642;2023-11-22T07:30:46;19.90;55.30
16404;DHT22;8311;50.158;8.642;2023-11-22T07:33:40;19.90;55.40
16404;DHT22;8311;50.158;8.642;2023-11-22T07:36:35;19.90;55.40
16404;DHT22;8311;50.158;8.642;2023-11-22T07:39:29;19.90;55.40
16404;DHT22;8311;50.158;8.642;2023-11-22T07:42:24;19.90;55.40
16404;DHT22;8311;50.158;8.642;2023-11-22T07:45:18;19.90;55.30
16404;DHT22;8311;50.158;8.642;2023-11-22T07:48:10;19.90;55.40
16404;DHT22;8311;50.158;8.642;2023-11-22T07:51:05;19.90;55.40
16404;DHT22;8311;50.158;8.642;2023-11-22T07:53:59;19.90;55.30
16404;DHT22;8311;50.158;8.642;2023-11-22T07:56:52;19.90;55.30
16404;DHT22;8311;50.158;8.642;2023-11-22T07:59:45;19.90;55.30
16404;DHT22;8311;50.158;8.642;2023-11-22T08:02:39;19.90;55.40
16404;DHT22;8311;50.158;8.642;2023-11-22T08:05:34;19.90;55.30
16404;DHT22;8311;50.158;8.642;2023-11-22T08:08:28;19.90;55.40
16404;DHT22;8311;50.158;8.642;2023-11-22T08:11:23;19.90;55.30
16404;DHT22;8311;50.158;8.642;2023-11-22T08:14:16;19.90;55.40
16404;DHT22;8311;50.158;8.642;2023-11-22T08:17:10;19.90;55.30
16404;DHT22;8311;50.158;8.642;2023-11-22T08:20:04;19.90;55.40
16404;DHT22;8311;50.158;8.642;2023-11-22T08:23:02;19.90;55.30
16404;DHT22;8311;50.158;8.642;2023-11-22T08:25:58;20.00;55.40
16404;DHT22;8311;50.158;8.642;2023-11-22T08:28:53;20.00;55.40
16404;DHT22;8311;50.158;8.642;2023-11-22T08:31:47;20.00;55.40
16404;DHT22;8311;50.158;8.642;2023-11-22T08:34:42;19.90;55.30
16404;DHT22;8311;50.158;8.642;2023-11-22T08:37:40;19.90;55.40
16404;DHT22;8311;50.158;8.642;2023-11-22T08:40:34;19.90;55.40
16404;DHT22;8311;50.158;8.642;2023-11-22T08:43:28;20.00;55.40
16404;DHT22;8311;50.158;8.642;2023-11-22T08:46:25;19.90;55.30
16404;DHT22;8311;50.158;8.642;2023-11-22T08:49:18;19.90;55.40
16404;DHT22;8311;50.158;8.642;2023-11-22T08:52:12;19.90;55.40
16404;DHT22;8311;50.158;8.642;2023-11-22T08:55:06;19.90;55.40
16404;DHT22;8311;50.158;8.642;2023-11-22T08:58:04;19.90;55.40
16404;DHT22;8311;50.158;8.642;2023-11-22T09:01:00;19.90;55.40
16404;DHT22;8311;50.158;8.642;2023-11-22T09:03:57;19.90;55.40
16404;DHT22;8311;50.158;8.642;2023-11-22T09:06:51;19.90;55.40
16404;DHT22;8311;50.158;8.642;2023-11-22T09:09:46;19.90;55.40
16404;DHT22;8311;50.158;8.642;2023-11-22T09:12:40;19.90;55.40
16404;DHT22;8311;50.158;8.642;2023-11-22T09:15:34;19.90;55.40
16404;DHT22;8311;50.158;8.642;2023-11-22T09:18:27;19.90;55.40
16404;DHT22;8311;50.158;8.642;2023-11-22T09:21:23;19.90;55.40
16404;DHT22;8311;50.158;8.642;2023-11-22T09:24:18;19.90;55.40
16404;DHT22;8311;50.158;8.642;2023-11-22T09:27:12;19.90;55.40
16404;DHT22;8311;50.158;8.642;2023-11-22T09:30:10;19.90;55.40
16404;DHT22;8311;50.158;8.642;2023-11-22T09:33:11;19.90;55.40
16404;DHT22;8311;50.158;8.642;2023-11-22T09:36:08;19.90;55.40
16404;DHT22;8311;50.158;8.642;2023-11-22T09:39:05;19.90;55.40
16404;DHT22;8311;50.158;8.642;2023-11-22T09:42:01;19.90;55.40
16404;DHT22;8311;50.158;8.642;2023-11-22T09:44:57;19.90;55.40
16404;DHT22;8311;50.158;8.642;2023-11-22T09:47:50;19.90;55.40
16404;DHT22;8311;50.158;8.642;2023-11-22T09:50:50;19.90;55.40
16404;DHT22;8311;50.158;8.642;2023-11-22T09:53:52;19.90;55.40
16404;DHT22;8311;50.158;8.642;2023-11-22T09:56:47;19.90;55.40
16404;DHT22;8311;50.158;8.642;2023-11-22T09:59:44;19.90;55.40
16404;DHT22;8311;50.158;8.642;2023-11-22T10:02:37;19.90;55.40
16404;DHT22;8311;50.158;8.642;2023-11-22T10:05:30;19.90;55.40
16404;DHT22;8311;50.158;8.642;2023-11-22T10:08:25;19.90;55.40
16404;DHT22;8311;50.158;8.642;2023-11-22T10:11:20;19.90;55.40
16404;DHT22;8311;50.158;8.642;2023-11-22T10:14:22;19.90;55.40
16404;DHT22;8311;50.158;8.642;2023-11-22T10:17:16;19.90;55.40
16404;DHT22;8311;50.158;8.642;2023-11-22T10:20:12;19.90;55.40
16404;DHT22;8311;50.158;8.642;2023-11-22T10:23:08;19.90;55.40
16404;DHT22;8311;50.158;8.642;2023-11-22T10:26:02;19.90;55.40
16404;DHT22;8311;50.158;8.642;2023-11-22T10:28:59;19.90;55.40
16404;DHT22;8311;50.158;8.642;2023-11-22T10:31:55;19.90;55.40
16404;DHT22;8311;50.158;8.642;2023-11-22T10:34:48;19.90;55.40
16404;DHT22;8311;50.158;8.642;2023-11-22T10:37:43;19.90;55.40
16404;DHT22;8311;50.158;8.642;2023-11-22T10:40:37;19.90;55.40
16404;DHT22;8311;50.158;8.642;2023-11-22T10:43:31;19.90;55.30
16404;DHT22;8311;50.158;8.642;2023-11-22T10:46:28;19.90;55.40
16404;DHT22;8311;50.158;8.642;2023-11-22T10:49:24;19.90;55.30
16404;DHT22;8311;50.158;8.642;2023-11-22T10:52:18;19.90;55.40
16404;DHT22;8311;50.158;8.642;2023-11-22T10:55:14;19.90;55.40
16404;DHT22;8311;50.158;8.642;2023-11-22T10:58:09;19.90;55.30
16404;DHT22;8311;50.158;8.642;2023-11-22T11:01:07;19.90;55.40
16404;DHT22;8311;50.158;8.642;2023-11-22T11:04:03;19.90;55.40
16404;DHT22;8311;50.158;8.642;2023-11-22T11:07:01;19.90;55.30
16404;DHT22;8311;50.158;8.642;2023-11-22T11:09:56;19.90;55.30
16404;DHT22;8311;50.158;8.642;2023-11-22T11:13:03;19.90;55.30
16404;DHT22;8311;50.158;8.642;2023-11-22T11:15:57;19.90;55.40
16404;DHT22;8311;50.158;8.642;2023-11-22T11:18:51;19.90;55.40
16404;DHT22;8311;50.158;8.642;2023-11-22T11:21:45;19.90;55.40
16404;DHT22;8311;50.158;8.642;2023-11-22T11:24:41;19.90;55.40
16404;DHT22;8311;50.158;8.642;2023-11-22T11:27:37;19.90;55.40
16404;DHT22;8311;50.158;8.642;2023-11-22T11:30:41;19.90;55.40
16404;DHT22;8311;50.158;8.642;2023-11-22T11:33:53;19.90;55.30
16404;DHT22;8311;50.158;8.642;2023-11-22T11:36:52;19.90;55.30
16404;DHT22;8311;50.158;8.642;2023-11-22T11:39:47;19.90;55.30
16404;DHT22;8311;50.158;8.642;2023-11-22T11:42:40;19.90;55.40
16404;DHT22;8311;50.158;8.642;2023-11-22T11:45:39;19.90;55.30
16404;DHT22;8311;50.158;8.642;2023-11-22T11:48:38;19.90;55.30
16404;DHT22;8311;50.158;8.642;2023-11-22T11:51:34;19.90;56.10
16404;DHT22;8311;50.158;8.642;2023-11-22T11:54:28;20.00;56.10
16404;DHT22;8311;50.158;8.642;2023-11-22T11:57:23;20.00;56.30
16404;DHT22;8311;50.158;8.642;2023-11-22T12:00:16;20.10;56.30
16404;DHT22;8311;50.158;8.642;2023-11-22T12:03:10;20.10;56.10
16404;DHT22;8311;50.158;8.642;2023-11-22T12:06:04;20.10;56.10
16404;DHT22;8311;50.158;8.642;2023-11-22T12:08:58;20.10;56.50
16404;DHT22;8311;50.158;8.642;2023-11-22T12:11:51;20.10;56.20
16404;DHT22;8311;50.158;8.642;2023-11-22T12:14:46;20.10;56.90
16404;DHT22;8311;50.158;8.642;2023-11-22T12:17:40;20.10;56.10
16404;DHT22;8311;50.158;8.642;2023-11-22T12:20:34;20.10;56.10
16404;DHT22;8311;50.158;8.642;2023-11-22T12:23:28;20.10;56.00
16404;DHT22;8311;50.158;8.642;2023-11-22T12:26:23;20.10;56.00
16404;DHT22;8311;50.158;8.642;2023-11-22T12:29:16;20.10;56.00
16404;DHT22;8311;50.158;8.642;2023-11-22T12:32:12;20.10;55.90
16404;DHT22;8311;50.158;8.642;2023-11-22T12:35:06;20.10;55.80
16404;DHT22;8311;50.158;8.642;2023-11-22T12:38:00;20.10;55.90
16404;DHT22;8311;50.158;8.642;2023-11-22T12:40:56;20.10;55.80
16404;DHT22;8311;50.158;8.642;2023-11-22T12:44:02;20.10;55.80
16404;DHT22;8311;50.158;8.642;2023-11-22T12:46:55;20.20;55.90
16404;DHT22;8311;50.158;8.642;2023-11-22T12:49:52;20.20;55.90
16404;DHT22;8311;50.158;8.642;2023-11-22T12:52:45;20.10;55.80
16404;DHT22;8311;50.158;8.642;2023-11-22T12:55:41;20.20;55.70
16404;DHT22;8311;50.158;8.642;2023-11-22T12:58:36;20.10;55.60
16404;DHT22;8311;50.158;8.642;2023-11-22T13:01:29;20.10;55.60
16404;DHT22;8311;50.158;8.642;2023-11-22T13:04:22;20.10;55.60
16404;DHT22;8311;50.158;8.642;2023-11-22T13:07:17;20.10;55.50
16404;DHT22;8311;50.158;8.642;2023-11-22T13:10:11;20.10;55.50
16404;DHT22;8311;50.158;8.642;2023-11-22T13:13:09;20.10;55.50
16404;DHT22;8311;50.158;8.642;2023-11-22T13:16:03;20.10;55.50
16404;DHT22;8311;50.158;8.642;2023-11-22T13:18:56;20.10;55.40
16404;DHT22;8311;50.158;8.642;2023-11-22T13:21:49;20.10;55.40
16404;DHT22;8311;50.158;8.642;2023-11-22T13:24:44;20.10;55.40
16404;DHT22;8311;50.158;8.642;2023-11-22T13:27:37;20.10;55.40
16404;DHT22;8311;50.158;8.642;2023-11-22T13:30:31;20.10;55.40
16404;DHT22;8311;50.158;8.642;2023-11-22T13:33:25;20.10;55.40
16404;DHT22;8311;50.158;8.642;2023-11-22T13:36:20;20.10;55.40
16404;DHT22;8311;50.158;8.642;2023-11-22T13:39:13;20.10;55.40
16404;DHT22;8311;50.158;8.642;2023-11-22T13:42:08;20.10;55.50
16404;DHT22;8311;50.158;8.642;2023-11-22T13:45:02;20.00;55.40
16404;DHT22;8311;50.158;8.642;2023-11-22T13:47:55;20.10;55.40
16404;DHT22;8311;50.158;8.642;2023-11-22T13:50:50;20.10;55.40
16404;DHT22;8311;50.158;8.642;2023-11-22T13:53:43;20.00;55.40
16404;DHT22;8311;50.158;8.642;2023-11-22T13:56:42;20.00;55.40
16404;DHT22;8311;50.158;8.642;2023-11-22T13:59:36;20.00;55.40
16404;DHT22;8311;50.158;8.642;2023-11-22T14:02:29;20.00;55.40
16404;DHT22;8311;50.158;8.642;2023-11-22T14:05:23;20.00;55.40
16404;DHT22;8311;50.158;8.642;2023-11-22T14:08:17;20.00;55.40
16404;DHT22;8311;50.158;8.642;2023-11-22T14:11:11;20.00;55.40
16404;DHT22;8311;50.158;8.642;2023-11-22T14:14:05;20.00;55.40
16404;DHT22;8311;50.158;8.642;2023-11-22T14:17:04;20.00;55.40
16404;DHT22;8311;50.158;8.642;2023-11-22T14:19:58;20.00;55.40
16404;DHT22;8311;50.158;8.642;2023-11-22T14:22:51;20.00;55.40
16404;DHT22;8311;50.158;8.642;2023-11-22T14:25:45;20.00;55.40
16404;DHT22;8311;50.158;8.642;2023-11-22T14:28:39;20.00;55.50
16404;DHT22;8311;50.158;8.642;2023-11-22T14:31:34;19.90;55.40
16404;DHT22;8311;50.158;8.642;2023-11-22T14:34:28;19.90;55.40
16404;DHT22;8311;50.158;8.642;2023-11-22T14:37:21;20.00;55.50
16404;DHT22;8311;50.158;8.642;2023-11-22T14:40:15;19.90;55.40
16404;DHT22;8311;50.158;8.642;2023-11-22T14:43:12;19.90;55.50
16404;DHT22;8311;50.158;8.642;2023-11-22T14:46:05;19.90;55.50
16404;DHT22;8311;50.158;8.642;2023-11-22T14:48:59;19.90;55.50
16404;DHT22;8311;50.158;8.642;2023-11-22T14:51:53;19.90;55.50
16404;DHT22;8311;50.158;8.642;2023-11-22T14:54:47;19.90;55.50
16404;DHT22;8311;50.158;8.642;2023-11-22T14:57:41;19.90;55.60
16404;DHT22;8311;50.158;8.642;2023-11-22T15:00:35;19.90;55.60
16404;DHT22;8311;50.158;8.642;2023-11-22T15:03:28;19.90;55.60
16404;DHT22;8311;50.158;8.642;2023-11-22T15:06:23;19.90;55.60
16404;DHT22;8311;50.158;8.642;2023-11-22T15:09:17;19.90;55.60
16404;DHT22;8311;50.158;8.642;2023-11-22T15:12:11;19.90;55.60
16404;DHT22;8311;50.158;8.642;2023-11-22T15:15:04;19.90;55.60
16404;DHT22;8311;50.158;8.642;2023-11-22T15:17:58;19.90;55.60
16404;DHT22;8311;50.158;8.642;2023-11-22T15:20:50;19.90;55.60
16404;DHT22;8311;50.158;8.642;2023-11-22T15:23:44;19.80;55.60
16404;DHT22;8311;50.158;8.642;2023-11-22T15:26:38;19.80;55.60
16404;DHT22;8311;50.158;8.642;2023-11-22T15:29:31;19.80;55.60
16404;DHT22;8311;50.158;8.642;2023-11-22T15:32:25;19.80;55.60
16404;DHT22;8311;50.158;8.642;2023-11-22T15:35:20;19.80;55.60
16404;DHT22;8311;50.158;8.642;2023-11-22T15:38:13;19.80;55.60
16404;DHT22;8311;50.158;8.642;2023-11-22T15:41:06;19.80;55.60
16404;DHT22;8311;50.158;8.642;2023-11-22T15:44:09;19.80;55.60
16404;DHT22;8311;50.158;8.642;2023-11-22T15:47:04;19.80;55.60
16404;DHT22;8311;50.158;8.642;2023-11-22T15:50:05;19.80;55.60
16404;DHT22;8311;50.158;8.642;2023-11-22T15:52:59;19.80;55.60
16404;DHT22;8311;50.158;8.642;2023-11-22T15:55:53;19.80;55.60
16404;DHT22;8311;50.158;8.642;2023-11-22T15:58:46;19.80;55.60
16404;DHT22;8311;50.158;8.642;2023-11-22T16:01:40;19.80;55.60
16404;DHT22;8311;50.158;8.642;2023-11-22T16:04:34;19.70;55.50
16404;DHT22;8311;50.158;8.642;2023-11-22T16:07:27;19.70;55.50
16404;DHT22;8311;50.158;8.642;2023-11-22T16:10:20;19.70;55.50
16404;DHT22;8311;50.158;8.642;2023-11-22T16:13:13;19.70;55.50
16404;DHT22;8311;50.158;8.642;2023-11-22T16:16:06;19.70;55.50
16404;DHT22;8311;50.158;8.642;2023-11-22T16:19:01;19.70;55.50
16404;DHT22;8311;50.158;8.642;2023-11-22T16:21:57;19.70;55.50
16404;DHT22;8311;50.158;8.642;2023-11-22T16:24:50;19.70;55.50
16404;DHT22;8311;50.158;8.642;2023-11-22T16:27:44;19.70;55.50
16404;DHT22;8311;50.158;8.642;2023-11-22T16:30:38;19.70;55.40
16404;DHT22;8311;50.158;8.642;2023-11-22T16:33:31;19.70;55.50
16404;DHT22;8311;50.158;8.642;2023-11-22T16:36:26;19.70;55.50
16404;DHT22;8311;50.158;8.642;2023-11-22T16:39:19;19.70;55.50
16404;DHT22;8311;50.158;8.642;2023-11-22T16:42:21;19.70;55.50
16404;DHT22;8311;50.158;8.642;2023-11-22T16:45:15;19.70;55.40
16404;DHT22;8311;50.158;8.642;2023-11-22T16:48:08;19.70;55.50
16404;DHT22;8311;50.158;8.642;2023-11-22T16:51:01;19.70;55.40
16404;DHT22;8311;50.158;8.642;2023-11-22T16:53:56;19.70;55.40
16404;DHT22;8311;50.158;8.642;2023-11-22T16:56:50;19.70;55.50
16404;DHT22;8311;50.158;8.642;2023-11-22T16:59:43;19.60;55.40
16404;DHT22;8311;50.158;8.642;2023-11-22T17:02:37;19.70;56.10
16404;DHT22;8311;50.158;8.642;2023-11-22T17:05:30;19.60;55.40
16404;DHT22;8311;50.158;8.642;2023-11-22T17:08:23;19.70;55.40
16404;DHT22;8311;50.158;8.642;2023-11-22T17:11:18;19.70;55.40
16404;DHT22;8311;50.158;8.642;2023-11-22T17:14:12;19.60;56.00
16404;DHT22;8311;50.158;8.642;2023-11-22T17:17:05;19.60;55.40
16404;DHT22;8311;50.158;8.642;2023-11-22T17:19:58;19.70;55.40
16404;DHT22;8311;50.158;8.642;2023-11-22T17:22:52;19.60;55.40
16404;DHT22;8311;50.158;8.642;2023-11-22T17:25:45;19.60;55.40
16404;DHT22;8311;50.158;8.642;2023-11-22T17:28:39;19.70;55.40
16404;DHT22;8311;50.158;8.642;2023-11-22T17:31:33;19.60;55.40
16404;DHT22;8311;50.158;8.642;2023-11-22T17:34:27;19.60;55.40
16404;DHT22;8311;50.158;8.642;2023-11-22T17:37:24;19.60;55.40
16404;DHT22;8311;50.158;8.642;2023-11-22T17:40:18;19.60;55.40
16404;DHT22;8311;50.158;8.642;2023-11-22T17:43:12;19.60;55.40
16404;DHT22;8311;50.158;8.642;2023-11-22T17:46:07;19.60;55.40
16404;DHT22;8311;50.158;8.642;2023-11-22T17:49:01;19.60;55.40
16404;DHT22;8311;50.158;8.642;2023-11-22T17:51:55;19.60;55.40
16404;DHT22;8311;50.158;8.642;2023-11-22T17:54:48;19.60;55.40
16404;DHT22;8311;50.158;8.642;2023-11-22T17:57:41;19.60;55.40
16404;DHT22;8311;50.158;8.642;2023-11-22T18:00:35;19.60;55.40
16404;DHT22;8311;50.158;8.642;2023-11-22T18:03:29;19.60;55.40
16404;DHT22;8311;50.158;8.642;2023-11-22T18:06:24;19.60;55.30
16404;DHT22;8311;50.158;8.642;2023-11-22T18:09:18;19.60;55.30
16404;DHT22;8311;50.158;8.642;2023-11-22T18:12:11;19.60;55.40
16404;DHT22;8311;50.158;8.642;2023-11-22T18:15:04;19.60;55.30
16404;DHT22;8311;50.158;8.642;2023-11-22T18:17:58;19.60;55.40
16404;DHT22;8311;50.158;8.642;2023-11-22T18:20:53;19.60;55.20
16404;DHT22;8311;50.158;8.642;2023-11-22T18:23:47;19.70;54.20
16404;DHT22;8311;50.158;8.642;2023-11-22T18:26:41;19.70;53.30
16404;DHT22;8311;50.158;8.642;2023-11-22T18:29:35;19.70;53.40
16404;DHT22;8311;50.158;8.642;2023-11-22T18:32:29;19.70;53.90
16404;DHT22;8311;50.158;8.642;2023-11-22T18:35:22;19.70;54.10
16404;DHT22;8311;50.158;8.642;2023-11-22T18:38:16;19.60;54.30